Kezdőlap
METAR-TAF:

METAR-TAF

Repülőterek :

Ungvár, Ukrajna

Ungvári nemzetközi repülőtér

földrajzi szélesség: 48-38-05N, földrajzi hosszúság: 022-15-53E, magasság: 117 m

Jelenlegi meteorológiai megfigyelések

A jelentés 43 perccel ezelõtt készült, 17:00 UTC
Északkeleti szél 8 kt, északnyugati és keleti között változik
Hőmérséklet -8°C
Páratartalom 37%
Légköri nyomás 1023 hPa
Látótávolság 10 km, vagy több
Derült ég

METAR: UKLU 251700Z 04004MPS 320V080 9999 SKC M08/M20 Q1023 NOSIG

Idő: 19:43 (17:43 UTC)

Előrejelzés

A jelentés 41 perccel ezelõtt készült, 17:02 UTC
Az előrejelzés 25-én 18 óra UTC és 26-én 03 óra UTC között érvényes
Északkeleti szél 10 kt
Látótávolság 10 km, vagy több
Derült ég

TAF: UKLU 251702Z 2518/2603 04005MPS 9999 SKC

Meteorológiai megfigyelések és előrejelzések több, mint 4000 repülőtéren (METAR és TAF jelentéseket).

A térképen piros és sárga pontok jelzik az elérhető meteorológiai állomásokat.

Mozgassa az egeret a pont fölött, hogy megjelenjen az állomás neve.

Azután kattintson az időjárási megfigyelések és előrejelzések megtekintéséhez.

A térkép megváltoztatása: kattintson a fekete keresztel jelölt zöld gombra ráközelítéshez, a vonallal jelölt zöld gombra távolításhoz, vagy a zöld nyilakra a szomszédos térképek eléréséhez.


METAR-TAF: